sensor_id;sensor_type;location;lat;lon;timestamp;pressure;altitude;pressure_sealevel;temperature;humidity
47763;BME280;33526;42.690;23.322;2023-03-26T00:00:57;94606.59;;;10.58;69.65
47763;BME280;33526;42.690;23.322;2023-03-26T00:03:22;94603.03;;;10.58;69.90
47763;BME280;33526;42.690;23.322;2023-03-26T00:05:48;94605.06;;;10.57;69.66
47763;BME280;33526;42.690;23.322;2023-03-26T00:08:14;94617.41;;;10.50;69.72
47763;BME280;33526;42.690;23.322;2023-03-26T00:10:41;94619.53;;;10.56;69.77
47763;BME280;33526;42.690;23.322;2023-03-26T00:13:07;94618.16;;;10.51;69.97
47763;BME280;33526;42.690;23.322;2023-03-26T00:15:34;94609.47;;;10.49;70.20
47763;BME280;33526;42.690;23.322;2023-03-26T00:17:59;94605.44;;;10.50;70.15
47763;BME280;33526;42.690;23.322;2023-03-26T00:20:25;94596.00;;;10.47;70.28
47763;BME280;33526;42.690;23.322;2023-03-26T00:22:51;94583.09;;;10.50;70.14
47763;BME280;33526;42.690;23.322;2023-03-26T00:25:17;94584.22;;;10.43;70.34
47763;BME280;33526;42.690;23.322;2023-03-26T00:27:44;94574.97;;;10.37;70.57
47763;BME280;33526;42.690;23.322;2023-03-26T00:30:10;94572.66;;;10.36;70.29
47763;BME280;33526;42.690;23.322;2023-03-26T00:32:35;94576.09;;;10.30;71.26
47763;BME280;33526;42.690;23.322;2023-03-26T00:35:01;94569.13;;;10.26;71.25
47763;BME280;33526;42.690;23.322;2023-03-26T00:37:27;94574.91;;;10.22;71.21
47763;BME280;33526;42.690;23.322;2023-03-26T00:39:53;94573.09;;;10.19;71.05
47763;BME280;33526;42.690;23.322;2023-03-26T00:42:19;94579.91;;;10.18;71.14
47763;BME280;33526;42.690;23.322;2023-03-26T00:44:44;94573.75;;;10.14;71.29
47763;BME280;33526;42.690;23.322;2023-03-26T00:47:10;94575.88;;;10.19;71.54
47763;BME280;33526;42.690;23.322;2023-03-26T00:49:35;94586.44;;;10.15;71.23
47763;BME280;33526;42.690;23.322;2023-03-26T00:52:00;94577.50;;;10.11;71.01
47763;BME280;33526;42.690;23.322;2023-03-26T00:54:27;94581.34;;;10.13;70.96
47763;BME280;33526;42.690;23.322;2023-03-26T00:56:53;94588.00;;;10.16;71.08
47763;BME280;33526;42.690;23.322;2023-03-26T00:59:20;94584.75;;;10.18;70.83
47763;BME280;33526;42.690;23.322;2023-03-26T01:01:46;94574.91;;;10.22;70.19
47763;BME280;33526;42.690;23.322;2023-03-26T01:04:19;94583.19;;;10.17;69.99
47763;BME280;33526;42.690;23.322;2023-03-26T01:06:48;94581.09;;;10.26;70.15
47763;BME280;33526;42.690;23.322;2023-03-26T01:09:15;94579.84;;;10.27;69.17
47763;BME280;33526;42.690;23.322;2023-03-26T01:11:42;94580.44;;;10.31;69.35
47763;BME280;33526;42.690;23.322;2023-03-26T01:14:19;94595.38;;;10.28;68.75
47763;BME280;33526;42.690;23.322;2023-03-26T01:16:51;94593.81;;;10.27;69.04
47763;BME280;33526;42.690;23.322;2023-03-26T01:19:28;94602.47;;;10.29;69.20
47763;BME280;33526;42.690;23.322;2023-03-26T01:21:56;94590.06;;;10.30;68.92
47763;BME280;33526;42.690;23.322;2023-03-26T01:24:21;94583.56;;;10.24;69.52
47763;BME280;33526;42.690;23.322;2023-03-26T01:29:26;94592.66;;;10.19;70.11
47763;BME280;33526;42.690;23.322;2023-03-26T01:32:02;94596.69;;;10.18;69.70
47763;BME280;33526;42.690;23.322;2023-03-26T01:37:03;94609.94;;;10.08;70.26
47763;BME280;33526;42.690;23.322;2023-03-26T01:39:38;94599.91;;;10.02;70.85
47763;BME280;33526;42.690;23.322;2023-03-26T01:42:08;94599.44;;;10.03;70.48
47763;BME280;33526;42.690;23.322;2023-03-26T01:45:18;94604.84;;;10.07;70.69
47763;BME280;33526;42.690;23.322;2023-03-26T01:47:23;94608.22;;;10.11;71.21
47763;BME280;33526;42.690;23.322;2023-03-26T01:49:49;94611.88;;;10.17;70.74
47763;BME280;33526;42.690;23.322;2023-03-26T01:52:16;94619.31;;;10.20;70.68
47763;BME280;33526;42.690;23.322;2023-03-26T01:54:43;94613.06;;;10.25;70.49
47763;BME280;33526;42.690;23.322;2023-03-26T02:04:51;94606.66;;;10.10;71.47
47763;BME280;33526;42.690;23.322;2023-03-26T02:10:16;94599.53;;;9.85;72.74
47763;BME280;33526;42.690;23.322;2023-03-26T02:12:45;94603.66;;;9.74;73.77
47763;BME280;33526;42.690;23.322;2023-03-26T02:15:11;94602.09;;;9.73;74.08
47763;BME280;33526;42.690;23.322;2023-03-26T02:17:36;94603.41;;;9.63;73.98
47763;BME280;33526;42.690;23.322;2023-03-26T02:20:05;94603.56;;;9.60;74.45
47763;BME280;33526;42.690;23.322;2023-03-26T02:22:31;94607.97;;;9.51;74.97
47763;BME280;33526;42.690;23.322;2023-03-26T02:24:56;94606.72;;;9.52;75.50
47763;BME280;33526;42.690;23.322;2023-03-26T02:27:21;94604.25;;;9.54;74.99
47763;BME280;33526;42.690;23.322;2023-03-26T02:29:47;94598.16;;;9.56;74.42
47763;BME280;33526;42.690;23.322;2023-03-26T02:32:14;94601.44;;;9.54;74.66
47763;BME280;33526;42.690;23.322;2023-03-26T02:34:40;94606.41;;;9.50;74.88
47763;BME280;33526;42.690;23.322;2023-03-26T02:37:06;94605.13;;;9.61;74.52
47763;BME280;33526;42.690;23.322;2023-03-26T02:39:31;94610.72;;;9.61;74.68
47763;BME280;33526;42.690;23.322;2023-03-26T02:41:56;94607.75;;;9.64;74.18
47763;BME280;33526;42.690;23.322;2023-03-26T02:44:22;94616.06;;;9.73;73.68
47763;BME280;33526;42.690;23.322;2023-03-26T02:46:48;94624.56;;;9.79;73.38
47763;BME280;33526;42.690;23.322;2023-03-26T02:49:14;94630.44;;;9.81;73.34
47763;BME280;33526;42.690;23.322;2023-03-26T02:51:39;94628.31;;;9.76;73.93
47763;BME280;33526;42.690;23.322;2023-03-26T02:54:05;94628.00;;;9.74;74.14
47763;BME280;33526;42.690;23.322;2023-03-26T02:56:31;94628.38;;;9.57;75.05
47763;BME280;33526;42.690;23.322;2023-03-26T02:58:56;94642.06;;;9.55;75.17
47763;BME280;33526;42.690;23.322;2023-03-26T03:01:22;94638.38;;;9.49;75.48
47763;BME280;33526;42.690;23.322;2023-03-26T03:03:47;94649.88;;;9.42;76.00
47763;BME280;33526;42.690;23.322;2023-03-26T03:06:13;94644.16;;;9.27;75.96
47763;BME280;33526;42.690;23.322;2023-03-26T03:08:41;94644.53;;;9.20;76.26
47763;BME280;33526;42.690;23.322;2023-03-26T03:11:07;94649.91;;;9.24;75.90
47763;BME280;33526;42.690;23.322;2023-03-26T03:13:33;94646.84;;;9.22;76.00
47763;BME280;33526;42.690;23.322;2023-03-26T03:15:58;94642.88;;;9.04;76.05
47763;BME280;33526;42.690;23.322;2023-03-26T03:18:23;94648.47;;;9.04;76.33
47763;BME280;33526;42.690;23.322;2023-03-26T03:20:49;94649.38;;;9.01;76.83
47763;BME280;33526;42.690;23.322;2023-03-26T03:23:14;94652.81;;;8.96;77.05
47763;BME280;33526;42.690;23.322;2023-03-26T03:25:40;94651.88;;;8.99;76.52
47763;BME280;33526;42.690;23.322;2023-03-26T03:28:06;94654.84;;;8.86;76.69
47763;BME280;33526;42.690;23.322;2023-03-26T03:30:31;94655.16;;;8.88;76.75
47763;BME280;33526;42.690;23.322;2023-03-26T03:32:56;94661.81;;;8.82;76.66
47763;BME280;33526;42.690;23.322;2023-03-26T03:35:23;94658.88;;;8.76;76.63
47763;BME280;33526;42.690;23.322;2023-03-26T03:37:48;94646.97;;;8.75;76.65
47763;BME280;33526;42.690;23.322;2023-03-26T03:40:13;94647.59;;;8.70;77.01
47763;BME280;33526;42.690;23.322;2023-03-26T03:42:38;94641.69;;;8.77;77.27
47763;BME280;33526;42.690;23.322;2023-03-26T03:45:04;94632.22;;;8.75;77.10
47763;BME280;33526;42.690;23.322;2023-03-26T03:47:30;94631.16;;;8.72;77.13
47763;BME280;33526;42.690;23.322;2023-03-26T03:49:55;94621.28;;;8.62;77.27
47763;BME280;33526;42.690;23.322;2023-03-26T03:52:24;94638.28;;;8.64;77.94
47763;BME280;33526;42.690;23.322;2023-03-26T03:54:49;94646.03;;;8.69;77.87
47763;BME280;33526;42.690;23.322;2023-03-26T03:57:15;94648.84;;;8.60;77.89
47763;BME280;33526;42.690;23.322;2023-03-26T03:59:43;94649.75;;;8.57;78.40
47763;BME280;33526;42.690;23.322;2023-03-26T04:02:09;94657.81;;;8.55;78.12
47763;BME280;33526;42.690;23.322;2023-03-26T04:04:35;94650.41;;;8.52;78.10
47763;BME280;33526;42.690;23.322;2023-03-26T04:07:01;94657.97;;;8.51;78.50
47763;BME280;33526;42.690;23.322;2023-03-26T04:09:27;94653.63;;;8.59;78.30
47763;BME280;33526;42.690;23.322;2023-03-26T04:11:52;94664.31;;;8.61;77.79
47763;BME280;33526;42.690;23.322;2023-03-26T04:14:17;94666.16;;;8.64;78.21
47763;BME280;33526;42.690;23.322;2023-03-26T04:16:43;94678.88;;;8.65;77.59
47763;BME280;33526;42.690;23.322;2023-03-26T04:19:08;94681.34;;;8.63;78.02
47763;BME280;33526;42.690;23.322;2023-03-26T04:21:34;94693.41;;;8.60;78.16
47763;BME280;33526;42.690;23.322;2023-03-26T04:24:02;94697.16;;;8.66;78.03
47763;BME280;33526;42.690;23.322;2023-03-26T04:26:27;94712.59;;;8.76;77.97
47763;BME280;33526;42.690;23.322;2023-03-26T04:28:55;94721.91;;;8.73;77.70
47763;BME280;33526;42.690;23.322;2023-03-26T04:31:24;94717.72;;;8.78;77.94
47763;BME280;33526;42.690;23.322;2023-03-26T04:33:53;94733.81;;;8.83;77.14
47763;BME280;33526;42.690;23.322;2023-03-26T04:36:24;94737.06;;;8.82;77.21
47763;BME280;33526;42.690;23.322;2023-03-26T04:38:53;94744.22;;;8.83;76.92
47763;BME280;33526;42.690;23.322;2023-03-26T04:41:19;94747.00;;;8.92;76.55
47763;BME280;33526;42.690;23.322;2023-03-26T04:43:46;94753.78;;;9.00;75.79
47763;BME280;33526;42.690;23.322;2023-03-26T04:46:14;94746.97;;;9.10;75.35
47763;BME280;33526;42.690;23.322;2023-03-26T04:48:42;94749.91;;;9.16;74.79
47763;BME280;33526;42.690;23.322;2023-03-26T04:51:08;94766.47;;;9.19;74.39
47763;BME280;33526;42.690;23.322;2023-03-26T04:53:41;94757.63;;;9.21;74.08
47763;BME280;33526;42.690;23.322;2023-03-26T04:56:23;94762.13;;;9.28;74.01
47763;BME280;33526;42.690;23.322;2023-03-26T04:58:53;94768.59;;;9.43;73.58
47763;BME280;33526;42.690;23.322;2023-03-26T05:01:20;94760.53;;;9.45;73.09
47763;BME280;33526;42.690;23.322;2023-03-26T05:03:48;94755.41;;;9.53;72.60
47763;BME280;33526;42.690;23.322;2023-03-26T05:06:14;94765.84;;;9.86;71.06
47763;BME280;33526;42.690;23.322;2023-03-26T05:08:40;94753.94;;;10.09;70.20
47763;BME280;33526;42.690;23.322;2023-03-26T05:11:07;94771.13;;;10.17;69.96
47763;BME280;33526;42.690;23.322;2023-03-26T05:13:35;94780.72;;;10.25;68.71
47763;BME280;33526;42.690;23.322;2023-03-26T05:16:00;94776.50;;;10.30;68.13
47763;BME280;33526;42.690;23.322;2023-03-26T05:18:27;94772.97;;;10.20;68.31
47763;BME280;33526;42.690;23.322;2023-03-26T05:20:52;94778.91;;;10.13;68.94
47763;BME280;33526;42.690;23.322;2023-03-26T05:23:17;94766.84;;;10.07;68.67
47763;BME280;33526;42.690;23.322;2023-03-26T05:25:43;94777.44;;;9.93;69.16
47763;BME280;33526;42.690;23.322;2023-03-26T05:28:08;94779.22;;;9.72;70.25
47763;BME280;33526;42.690;23.322;2023-03-26T05:30:34;94787.44;;;9.76;70.71
47763;BME280;33526;42.690;23.322;2023-03-26T05:33:00;94779.25;;;9.63;70.89
47763;BME280;33526;42.690;23.322;2023-03-26T05:35:27;94776.91;;;9.71;71.02
47763;BME280;33526;42.690;23.322;2023-03-26T05:37:52;94778.44;;;9.72;70.84
47763;BME280;33526;42.690;23.322;2023-03-26T05:40:17;94787.78;;;9.60;71.75
47763;BME280;33526;42.690;23.322;2023-03-26T05:42:44;94787.00;;;9.59;72.52
47763;BME280;33526;42.690;23.322;2023-03-26T05:45:10;94792.41;;;9.72;71.49
47763;BME280;33526;42.690;23.322;2023-03-26T05:47:36;94798.28;;;9.74;71.14
47763;BME280;33526;42.690;23.322;2023-03-26T05:50:01;94792.44;;;9.63;71.46
47763;BME280;33526;42.690;23.322;2023-03-26T05:52:27;94798.94;;;9.60;71.56
47763;BME280;33526;42.690;23.322;2023-03-26T05:54:53;94805.19;;;9.54;71.71
47763;BME280;33526;42.690;23.322;2023-03-26T05:57:19;94799.59;;;9.45;71.81
47763;BME280;33526;42.690;23.322;2023-03-26T05:59:46;94789.53;;;9.48;71.63
47763;BME280;33526;42.690;23.322;2023-03-26T06:02:12;94784.97;;;9.69;70.97
47763;BME280;33526;42.690;23.322;2023-03-26T06:04:37;94782.78;;;9.73;70.57
47763;BME280;33526;42.690;23.322;2023-03-26T06:07:06;94781.50;;;9.92;70.22
47763;BME280;33526;42.690;23.322;2023-03-26T06:09:34;94779.59;;;9.99;69.07
47763;BME280;33526;42.690;23.322;2023-03-26T06:12:01;94787.91;;;10.08;68.62
47763;BME280;33526;42.690;23.322;2023-03-26T06:14:27;94788.50;;;10.21;67.49
47763;BME280;33526;42.690;23.322;2023-03-26T06:16:52;94781.47;;;10.26;67.03
47763;BME280;33526;42.690;23.322;2023-03-26T06:19:17;94772.31;;;10.35;66.50
47763;BME280;33526;42.690;23.322;2023-03-26T06:21:42;94781.78;;;10.37;66.58
47763;BME280;33526;42.690;23.322;2023-03-26T06:24:08;94784.69;;;10.43;66.78
47763;BME280;33526;42.690;23.322;2023-03-26T06:26:33;94787.47;;;10.43;67.21
47763;BME280;33526;42.690;23.322;2023-03-26T06:28:58;94773.25;;;10.31;67.41
47763;BME280;33526;42.690;23.322;2023-03-26T06:31:24;94784.06;;;10.39;66.97
47763;BME280;33526;42.690;23.322;2023-03-26T06:33:49;94777.03;;;10.19;68.42
47763;BME280;33526;42.690;23.322;2023-03-26T06:36:15;94775.69;;;10.39;67.19
47763;BME280;33526;42.690;23.322;2023-03-26T06:38:40;94781.28;;;10.39;67.14
47763;BME280;33526;42.690;23.322;2023-03-26T06:41:05;94779.56;;;10.65;65.70
47763;BME280;33526;42.690;23.322;2023-03-26T06:43:31;94780.78;;;10.88;64.16
47763;BME280;33526;42.690;23.322;2023-03-26T06:46:00;94783.25;;;11.10;63.94
47763;BME280;33526;42.690;23.322;2023-03-26T06:48:26;94789.13;;;11.13;64.34
47763;BME280;33526;42.690;23.322;2023-03-26T06:50:51;94796.28;;;11.14;63.82
47763;BME280;33526;42.690;23.322;2023-03-26T06:53:16;94801.84;;;10.99;63.83
47763;BME280;33526;42.690;23.322;2023-03-26T06:55:42;94808.97;;;11.00;63.04
47763;BME280;33526;42.690;23.322;2023-03-26T06:58:09;94809.41;;;11.07;61.45
47763;BME280;33526;42.690;23.322;2023-03-26T07:00:35;94810.75;;;11.12;61.35
47763;BME280;33526;42.690;23.322;2023-03-26T07:03:01;94814.41;;;11.03;61.47
47763;BME280;33526;42.690;23.322;2023-03-26T07:05:26;94810.34;;;11.04;62.18
47763;BME280;33526;42.690;23.322;2023-03-26T07:07:52;94806.91;;;11.09;61.43
47763;BME280;33526;42.690;23.322;2023-03-26T07:10:17;94813.53;;;10.97;60.98
47763;BME280;33526;42.690;23.322;2023-03-26T07:12:42;94810.19;;;11.08;61.65
47763;BME280;33526;42.690;23.322;2023-03-26T07:15:08;94806.16;;;11.24;61.16
47763;BME280;33526;42.690;23.322;2023-03-26T07:17:34;94809.78;;;11.00;61.40
47763;BME280;33526;42.690;23.322;2023-03-26T07:20:00;94801.44;;;10.91;61.76
47763;BME280;33526;42.690;23.322;2023-03-26T07:22:25;94799.31;;;10.86;61.95
47763;BME280;33526;42.690;23.322;2023-03-26T07:24:51;94795.25;;;10.87;61.65
47763;BME280;33526;42.690;23.322;2023-03-26T07:29:48;94792.72;;;11.13;59.73
47763;BME280;33526;42.690;23.322;2023-03-26T07:34:51;94782.78;;;11.27;59.65
47763;BME280;33526;42.690;23.322;2023-03-26T07:37:31;94787.06;;;11.37;59.28
47763;BME280;33526;42.690;23.322;2023-03-26T07:42:57;94789.78;;;11.61;59.03
47763;BME280;33526;42.690;23.322;2023-03-26T07:45:29;94780.31;;;11.59;58.35
47763;BME280;33526;42.690;23.322;2023-03-26T07:48:07;94777.81;;;11.31;58.64
47763;BME280;33526;42.690;23.322;2023-03-26T07:50:38;94789.38;;;11.54;58.49
47763;BME280;33526;42.690;23.322;2023-03-26T07:53:05;94784.56;;;11.69;57.82
47763;BME280;33526;42.690;23.322;2023-03-26T07:55:31;94792.97;;;11.69;57.08
47763;BME280;33526;42.690;23.322;2023-03-26T08:00:28;94787.47;;;11.75;56.87
47763;BME280;33526;42.690;23.322;2023-03-26T08:05:26;94789.97;;;11.73;56.05
47763;BME280;33526;42.690;23.322;2023-03-26T08:07:55;94788.13;;;11.84;53.74
47763;BME280;33526;42.690;23.322;2023-03-26T08:10:32;94775.13;;;11.96;52.35
47763;BME280;33526;42.690;23.322;2023-03-26T08:13:17;94779.75;;;11.99;51.60
47763;BME280;33526;42.690;23.322;2023-03-26T08:21:41;94773.94;;;12.38;49.74
47763;BME280;33526;42.690;23.322;2023-03-26T08:31:10;94777.03;;;12.40;50.38
47763;BME280;33526;42.690;23.322;2023-03-26T08:33:37;94779.81;;;12.55;51.16
47763;BME280;33526;42.690;23.322;2023-03-26T08:36:07;94780.09;;;12.78;49.10
47763;BME280;33526;42.690;23.322;2023-03-26T08:38:33;94777.66;;;12.86;49.32
47763;BME280;33526;42.690;23.322;2023-03-26T08:43:53;94772.09;;;12.91;49.12
47763;BME280;33526;42.690;23.322;2023-03-26T08:57:10;94773.78;;;12.62;49.17
47763;BME280;33526;42.690;23.322;2023-03-26T08:59:59;94766.97;;;12.90;48.54
47763;BME280;33526;42.690;23.322;2023-03-26T09:02:36;94776.28;;;13.01;48.16
47763;BME280;33526;42.690;23.322;2023-03-26T10:11:43;94703.44;;;13.97;41.01
47763;BME280;33526;42.690;23.322;2023-03-26T10:14:21;94710.00;;;14.26;41.36
47763;BME280;33526;42.690;23.322;2023-03-26T10:17:04;94707.78;;;14.36;39.96
47763;BME280;33526;42.690;23.322;2023-03-26T10:35:22;94670.28;;;14.56;38.43
47763;BME280;33526;42.690;23.322;2023-03-26T10:38:01;94654.72;;;14.60;38.67
47763;BME280;33526;42.690;23.322;2023-03-26T10:59:05;94646.72;;;15.19;36.28
47763;BME280;33526;42.690;23.322;2023-03-26T11:12:35;94637.50;;;15.46;33.98
47763;BME280;33526;42.690;23.322;2023-03-26T11:15:09;94633.94;;;15.29;34.31
47763;BME280;33526;42.690;23.322;2023-03-26T11:20:08;94628.03;;;15.33;33.21
47763;BME280;33526;42.690;23.322;2023-03-26T11:25:20;94616.00;;;15.55;32.80
47763;BME280;33526;42.690;23.322;2023-03-26T11:33:02;94621.88;;;15.28;33.20
47763;BME280;33526;42.690;23.322;2023-03-26T11:35:32;94625.97;;;15.39;33.56
47763;BME280;33526;42.690;23.322;2023-03-26T11:40:26;94623.41;;;15.41;33.15
47763;BME280;33526;42.690;23.322;2023-03-26T11:43:06;94613.69;;;15.19;33.63
47763;BME280;33526;42.690;23.322;2023-03-26T11:45:34;94593.72;;;15.17;33.73
47763;BME280;33526;42.690;23.322;2023-03-26T11:48:37;94594.25;;;15.38;32.40
47763;BME280;33526;42.690;23.322;2023-03-26T11:50:56;94584.50;;;15.45;32.41
47763;BME280;33526;42.690;23.322;2023-03-26T11:53:24;94579.66;;;15.45;32.03
47763;BME280;33526;42.690;23.322;2023-03-26T11:56:10;94570.63;;;15.70;32.01
47763;BME280;33526;42.690;23.322;2023-03-26T11:58:42;94557.06;;;15.62;32.50
47763;BME280;33526;42.690;23.322;2023-03-26T12:01:12;94551.97;;;15.44;32.68
47763;BME280;33526;42.690;23.322;2023-03-26T12:03:39;94545.59;;;15.49;32.80
47763;BME280;33526;42.690;23.322;2023-03-26T12:06:21;94534.28;;;15.83;32.32
47763;BME280;33526;42.690;23.322;2023-03-26T12:08:49;94535.25;;;15.91;31.60
47763;BME280;33526;42.690;23.322;2023-03-26T12:11:16;94529.91;;;15.82;30.05
47763;BME280;33526;42.690;23.322;2023-03-26T12:13:57;94533.19;;;15.92;29.83
47763;BME280;33526;42.690;23.322;2023-03-26T12:16:23;94532.41;;;16.02;29.68
47763;BME280;33526;42.690;23.322;2023-03-26T12:19:34;94528.59;;;15.94;28.49
47763;BME280;33526;42.690;23.322;2023-03-26T12:21:44;94524.03;;;15.80;29.35
47763;BME280;33526;42.690;23.322;2023-03-26T12:24:23;94514.03;;;15.73;29.62
47763;BME280;33526;42.690;23.322;2023-03-26T12:26:50;94514.75;;;15.96;28.41
47763;BME280;33526;42.690;23.322;2023-03-26T12:29:20;94510.88;;;16.05;29.05
47763;BME280;33526;42.690;23.322;2023-03-26T12:31:50;94511.19;;;15.90;28.57
47763;BME280;33526;42.690;23.322;2023-03-26T12:34:17;94504.06;;;15.78;28.19
47763;BME280;33526;42.690;23.322;2023-03-26T12:36:47;94492.38;;;16.10;28.82
47763;BME280;33526;42.690;23.322;2023-03-26T12:41:58;94485.47;;;16.11;28.64
47763;BME280;33526;42.690;23.322;2023-03-26T12:44:42;94481.22;;;16.40;27.20
47763;BME280;33526;42.690;23.322;2023-03-26T12:47:10;94478.91;;;16.38;25.12
47763;BME280;33526;42.690;23.322;2023-03-26T12:49:38;94474.78;;;16.45;25.34
47763;BME280;33526;42.690;23.322;2023-03-26T12:52:08;94474.41;;;16.60;25.75
47763;BME280;33526;42.690;23.322;2023-03-26T13:07:41;94477.97;;;16.66;25.20
47763;BME280;33526;42.690;23.322;2023-03-26T13:13:02;94465.75;;;16.52;24.34
47763;BME280;33526;42.690;23.322;2023-03-26T13:15:43;94452.34;;;16.64;24.37
47763;BME280;33526;42.690;23.322;2023-03-26T13:18:33;94457.28;;;16.52;24.47
47763;BME280;33526;42.690;23.322;2023-03-26T13:23:35;94452.81;;;16.68;23.48
47763;BME280;33526;42.690;23.322;2023-03-26T13:26:12;94457.09;;;16.44;23.40
47763;BME280;33526;42.690;23.322;2023-03-26T13:31:31;94460.63;;;16.51;24.21
47763;BME280;33526;42.690;23.322;2023-03-26T13:34:02;94450.22;;;16.34;24.40
47763;BME280;33526;42.690;23.322;2023-03-26T13:36:37;94452.25;;;16.39;24.71
47763;BME280;33526;42.690;23.322;2023-03-26T13:41:54;94454.38;;;16.69;23.88
47763;BME280;33526;42.690;23.322;2023-03-26T13:46:52;94449.53;;;16.22;25.06
47763;BME280;33526;42.690;23.322;2023-03-26T13:49:29;94445.31;;;16.40;24.95
47763;BME280;33526;42.690;23.322;2023-03-26T13:52:06;94440.72;;;16.37;25.29
47763;BME280;33526;42.690;23.322;2023-03-26T13:54:54;94452.19;;;16.45;25.16
47763;BME280;33526;42.690;23.322;2023-03-26T13:57:25;94433.28;;;16.34;24.06
47763;BME280;33526;42.690;23.322;2023-03-26T13:59:54;94439.19;;;16.36;24.89
47763;BME280;33526;42.690;23.322;2023-03-26T14:02:35;94428.13;;;16.38;25.70
47763;BME280;33526;42.690;23.322;2023-03-26T14:05:08;94437.09;;;16.42;24.62
47763;BME280;33526;42.690;23.322;2023-03-26T14:10:27;94427.94;;;16.31;23.76
47763;BME280;33526;42.690;23.322;2023-03-26T14:15:28;94414.19;;;16.16;24.63
47763;BME280;33526;42.690;23.322;2023-03-26T14:30:27;94389.59;;;16.11;25.02
47763;BME280;33526;42.690;23.322;2023-03-26T14:35:57;94408.94;;;16.31;25.30
47763;BME280;33526;42.690;23.322;2023-03-26T14:46:11;94400.19;;;16.40;26.64
47763;BME280;33526;42.690;23.322;2023-03-26T14:53:33;94397.16;;;16.33;26.72
47763;BME280;33526;42.690;23.322;2023-03-26T15:11:58;94405.81;;;16.04;24.94
47763;BME280;33526;42.690;23.322;2023-03-26T15:27:45;94401.84;;;15.66;25.76
47763;BME280;33526;42.690;23.322;2023-03-26T15:30:21;94398.84;;;15.53;25.65
47763;BME280;33526;42.690;23.322;2023-03-26T15:40:41;94397.47;;;15.71;28.02
47763;BME280;33526;42.690;23.322;2023-03-26T15:43:12;94405.19;;;15.70;28.34
47763;BME280;33526;42.690;23.322;2023-03-26T16:01:13;94408.66;;;15.18;28.36
47763;BME280;33526;42.690;23.322;2023-03-26T16:03:46;94403.28;;;15.25;28.79
47763;BME280;33526;42.690;23.322;2023-03-26T16:08:52;94400.75;;;15.16;29.73
47763;BME280;33526;42.690;23.322;2023-03-26T16:14:10;94407.69;;;14.98;30.29
47763;BME280;33526;42.690;23.322;2023-03-26T16:16:48;94417.91;;;14.90;29.94
47763;BME280;33526;42.690;23.322;2023-03-26T16:21:52;94412.03;;;14.94;30.03
47763;BME280;33526;42.690;23.322;2023-03-26T16:24:29;94410.75;;;14.95;30.13
47763;BME280;33526;42.690;23.322;2023-03-26T16:32:27;94419.22;;;14.72;30.98
47763;BME280;33526;42.690;23.322;2023-03-26T16:48:14;94432.97;;;14.47;31.77
47763;BME280;33526;42.690;23.322;2023-03-26T17:01:23;94433.72;;;14.25;32.63
47763;BME280;33526;42.690;23.322;2023-03-26T17:09:22;94430.41;;;14.15;32.96
47763;BME280;33526;42.690;23.322;2023-03-26T17:17:20;94435.00;;;14.24;33.70
47763;BME280;33526;42.690;23.322;2023-03-26T17:22:28;94435.22;;;14.15;34.80
47763;BME280;33526;42.690;23.322;2023-03-26T17:25:00;94451.34;;;14.14;34.42
47763;BME280;33526;42.690;23.322;2023-03-26T17:27:43;94432.94;;;14.13;34.77
47763;BME280;33526;42.690;23.322;2023-03-26T17:32:56;94449.81;;;14.13;35.03
47763;BME280;33526;42.690;23.322;2023-03-26T17:35:39;94444.44;;;14.15;34.84
47763;BME280;33526;42.690;23.322;2023-03-26T17:40:55;94444.44;;;14.10;35.01
47763;BME280;33526;42.690;23.322;2023-03-26T17:45:57;94446.44;;;13.92;36.00
47763;BME280;33526;42.690;23.322;2023-03-26T17:48:23;94433.38;;;13.84;36.11
47763;BME280;33526;42.690;23.322;2023-03-26T17:50:56;94435.41;;;13.77;37.43
47763;BME280;33526;42.690;23.322;2023-03-26T17:53:27;94427.19;;;13.68;36.59
47763;BME280;33526;42.690;23.322;2023-03-26T17:55:56;94433.81;;;13.65;36.71
47763;BME280;33526;42.690;23.322;2023-03-26T18:03:35;94418.94;;;13.48;37.31
47763;BME280;33526;42.690;23.322;2023-03-26T18:06:18;94414.81;;;13.43;37.39
47763;BME280;33526;42.690;23.322;2023-03-26T18:11:26;94422.97;;;13.35;37.73
47763;BME280;33526;42.690;23.322;2023-03-26T18:14:00;94423.66;;;13.30;38.11
47763;BME280;33526;42.690;23.322;2023-03-26T18:16:36;94427.50;;;13.27;38.16
47763;BME280;33526;42.690;23.322;2023-03-26T18:19:15;94426.72;;;13.27;39.12
47763;BME280;33526;42.690;23.322;2023-03-26T18:21:46;94429.50;;;13.27;39.21
47763;BME280;33526;42.690;23.322;2023-03-26T18:24:16;94426.94;;;13.23;38.76
47763;BME280;33526;42.690;23.322;2023-03-26T18:26:44;94412.88;;;13.17;38.79
47763;BME280;33526;42.690;23.322;2023-03-26T18:31:40;94410.56;;;13.16;39.40
47763;BME280;33526;42.690;23.322;2023-03-26T18:34:10;94408.22;;;13.09;39.50
47763;BME280;33526;42.690;23.322;2023-03-26T18:36:37;94406.44;;;13.06;40.03
47763;BME280;33526;42.690;23.322;2023-03-26T18:39:03;94410.25;;;13.03;40.26
47763;BME280;33526;42.690;23.322;2023-03-26T18:41:32;94404.09;;;12.93;40.46
47763;BME280;33526;42.690;23.322;2023-03-26T18:44:02;94400.50;;;12.92;40.09
47763;BME280;33526;42.690;23.322;2023-03-26T18:46:29;94403.56;;;12.94;40.64
47763;BME280;33526;42.690;23.322;2023-03-26T18:48:55;94398.97;;;12.91;40.23
47763;BME280;33526;42.690;23.322;2023-03-26T18:51:24;94393.56;;;12.82;40.41
47763;BME280;33526;42.690;23.322;2023-03-26T18:53:59;94389.47;;;12.83;40.39
47763;BME280;33526;42.690;23.322;2023-03-26T18:58:56;94386.84;;;12.74;40.40
47763;BME280;33526;42.690;23.322;2023-03-26T19:01:23;94385.78;;;12.66;40.50
47763;BME280;33526;42.690;23.322;2023-03-26T19:03:49;94377.88;;;12.64;40.98
47763;BME280;33526;42.690;23.322;2023-03-26T19:06:16;94369.97;;;12.62;41.32
47763;BME280;33526;42.690;23.322;2023-03-26T19:08:42;94365.13;;;12.63;41.13